Aeroporto :
LOGIN :

Iscrizione | Disclaimer

   EN    FR    IT 

 










Sommario :    VFR   VFR Marginale   IFR   IFR Intensivo   IFR Molto Intensivo
Visibilità : 
Base nubi : 
>= 8 km
>= 3000ft
5 / 8 km
1000 / 3000 ft
1500m / 5 km
500 / 1000 ft
800 / 1500m
200 / 500 ft
< 800m
< 200 ft
Simboli :   Temporali  Nebbia  Neve Forte  Precipitazioni Forti  Vento > 20 kt
SIGMETs :   Varie  Temporali  Ghiacco  Turbolenza  Onda orograficha  Ceneri Vulcaniche






- Altitudine del aeroporto : 2395 ft
- Codice IATA : AMM


OJAI - Queen Alia Int.

ULTIMO METAR :
  • 090800Z 24015KT 5000 HZ FEW035 15/04 Q1014 NOSIG

METARs OBSOLETI :
  • 090700Z 22007KT 5000 HZ FEW035 14/05 Q1014 NOSIG
  • 090600Z 20003KT 5000 BR NSC 12/05 Q1014 NOSIG

TAF TAF OJAI
Valido dal 09 a 06 ore il 10 a 12 ore UTC


090500Z 0906/1012 28010KT 5000 HZ FEW030
PROB40
TEMPO 1001/1006 2000 BR SCT030
TEMPO 1005/1012 27014KT 3000 -RA SCT030 SCT035



MetMap, La meteo Aeronautica in un colpo d'occhio ! - Copyright ORBIFLY Dicembre 2007 - Disclaimer

ORBIFLY MET'MAP TEAM :

Programmazione e sviluppo : Alexandra Zaïnal
Concezione : Baudouin d'Aumeries
Aiuto per la programmazione : Marc-Olivier Méhu
Supporto tecnico e logistico : Manuel Goepfert
Aiuto per la traduzione : Arnaldo La Scala

Contatto : metmap@orbifly.com




FONTI E CREDITI :

   NOAA